Time;durP1;ratioP1;P1;durP2;ratioP2;P2;SDS_P1;SDS_P2;PMS_P1;PMS_P2;Temp;Humidity;BMP_temperature;BMP_pressure;BME280_temperature;BME280_humidity;BME280_pressure;Samples;Min_cycle;Max_cycle;Signal;HPM_P1;HPM_P2
2023/12/07 00:01:45;;;;;;;14.15;9.13;;;0.50;99.90;;;;;;4908142;29;20048;-67
2023/12/07 00:04:17;;;;;;;14.20;9.77;;;0.50;99.90;;;;;;4910924;29;20048;-67
2023/12/07 00:06:49;;;;;;;16.23;9.55;;;0.50;99.90;;;;;;4908538;29;20105;-67
2023/12/07 00:09:21;;;;;;;14.25;9.32;;;0.50;99.90;;;;;;4910877;29;20528;-67
2023/12/07 00:11:53;;;;;;;15.75;9.10;;;0.50;99.90;;;;;;4909543;29;20055;-67
2023/12/07 00:14:20;;;;;;;15.38;8.98;;;0.50;99.90;;;;;;4909296;29;20075;-67
2023/12/07 00:16:56;;;;;;;15.10;10.27;;;0.60;99.90;;;;;;4913815;29;20036;-67
2023/12/07 00:19:27;;;;;;;13.27;9.00;;;0.60;99.90;;;;;;4897922;29;20123;-68
2023/12/07 00:21:59;;;;;;;14.27;9.18;;;0.60;99.90;;;;;;4910923;29;20093;-67
2023/12/07 00:24:31;;;;;;;14.82;9.15;;;0.60;99.90;;;;;;4911184;29;20051;-68
2023/12/07 00:27:05;;;;;;;13.90;9.07;;;0.50;99.90;;;;;;4912060;29;20096;-67
2023/12/07 00:29:38;;;;;;;13.32;8.55;;;0.50;99.90;;;;;;4895737;29;20128;-67
2023/12/07 00:32:05;;;;;;;14.50;9.18;;;0.40;99.90;;;;;;4912288;29;20045;-68
2023/12/07 00:34:37;;;;;;;13.75;8.77;;;0.30;99.90;;;;;;4908344;29;20044;-67
2023/12/07 00:37:05;;;;;;;12.68;9.15;;;0.20;99.90;;;;;;4913226;29;20136;-68
2023/12/07 00:39:37;;;;;;;15.77;10.30;;;0.10;99.90;;;;;;4913869;29;20044;-68
2023/12/07 00:42:04;;;;;;;12.38;8.55;;;0.10;99.90;;;;;;4915938;29;20513;-68
2023/12/07 00:44:40;;;;;;;15.02;9.45;;;0.10;99.90;;;;;;4930178;29;20143;-68
2023/12/07 00:47:07;;;;;;;12.65;8.80;;;0.10;99.90;;;;;;4917095;29;20044;-68
2023/12/07 00:49:40;;;;;;;14.07;10.23;;;0.10;99.90;;;;;;4924785;29;20520;-67
2023/12/07 00:52:12;;;;;;;11.98;8.82;;;0.10;99.90;;;;;;4913836;29;20420;-68
2023/12/07 00:54:45;;;;;;;14.95;8.35;;;0.10;99.90;;;;;;4896205;29;20056;-67
2023/12/07 00:57:12;;;;;;;12.95;8.93;;;0.00;99.90;;;;;;4922711;29;20127;-68
2023/12/07 00:59:44;;;;;;;10.68;8.35;;;0.00;99.90;;;;;;4914715;29;20135;-67
2023/12/07 01:02:16;;;;;;;13.27;8.32;;;-0.10;99.90;;;;;;4911966;29;20347;-67
2023/12/07 01:04:48;;;;;;;13.02;7.78;;;-0.10;99.90;;;;;;4913287;29;20036;-67
2023/12/07 01:07:20;;;;;;;11.50;7.35;;;-0.10;99.90;;;;;;4925399;29;20042;-67
2023/12/07 01:09:52;;;;;;;11.93;8.43;;;-0.10;99.90;;;;;;4913587;29;20040;-67
2023/12/07 01:12:19;;;;;;;10.25;7.20;;;-0.20;99.90;;;;;;4916709;29;20051;-67
2023/12/07 01:14:46;;;;;;;13.00;8.65;;;-0.20;99.90;;;;;;4900082;29;20122;-67
2023/12/07 01:17:13;;;;;;;12.57;8.75;;;-0.20;99.90;;;;;;4920447;29;20048;-67
2023/12/07 01:19:45;;;;;;;12.52;8.82;;;-0.30;99.90;;;;;;4913887;29;20485;-67
2023/12/07 01:22:17;;;;;;;15.30;9.18;;;-0.30;99.90;;;;;;4913199;29;20044;-67
2023/12/07 01:24:49;;;;;;;17.58;10.32;;;-0.30;99.90;;;;;;4912997;29;20040;-67
2023/12/07 01:27:16;;;;;;;13.10;8.32;;;-0.30;99.90;;;;;;4915571;29;20051;-67
2023/12/07 01:29:48;;;;;;;16.15;8.93;;;-0.30;99.90;;;;;;4914430;29;20044;-67
2023/12/07 01:32:20;;;;;;;14.43;8.90;;;-0.30;99.90;;;;;;4915292;29;20071;-67
2023/12/07 01:34:52;;;;;;;15.18;8.52;;;-0.20;99.90;;;;;;4912876;29;20127;-67
2023/12/07 01:37:18;;;;;;;13.80;8.13;;;-0.20;99.90;;;;;;4916276;29;20059;-67
2023/12/07 01:39:50;;;;;;;14.55;8.07;;;-0.10;99.90;;;;;;4904374;29;20183;-67
2023/12/07 01:42:22;;;;;;;14.65;8.13;;;-0.10;99.90;;;;;;4900162;29;20072;-67
2023/12/07 01:44:54;;;;;;;12.07;7.93;;;0.00;99.90;;;;;;4913925;29;20067;-67
2023/12/07 01:47:21;;;;;;;12.32;7.53;;;0.00;99.90;;;;;;4897657;29;20515;-67
2023/12/07 01:49:54;;;;;;;13.45;7.75;;;0.00;99.90;;;;;;4913522;29;20042;-67
2023/12/07 01:52:29;;;;;;;12.25;7.30;;;0.10;99.90;;;;;;4913551;29;20052;-67
2023/12/07 01:55:01;;;;;;;12.70;7.80;;;0.10;99.90;;;;;;4913521;29;20578;-67
2023/12/07 01:57:33;;;;;;;13.68;7.13;;;0.10;99.90;;;;;;4911103;29;20067;-67
2023/12/07 02:00:06;;;;;;;10.40;6.30;;;0.20;99.90;;;;;;4914372;29;20684;-67
2023/12/07 02:02:39;;;;;;;14.57;8.07;;;0.20;99.90;;;;;;4913092;29;20115;-67
2023/12/07 02:05:12;;;;;;;12.85;7.10;;;0.20;99.90;;;;;;4899282;29;20044;-67
2023/12/07 02:07:45;;;;;;;9.45;6.22;;;0.20;99.90;;;;;;4914030;29;20052;-67
2023/12/07 02:10:13;;;;;;;12.75;7.18;;;0.20;99.90;;;;;;4911965;29;20048;-67
2023/12/07 02:12:40;;;;;;;9.77;6.50;;;0.20;99.90;;;;;;4911134;29;20491;-67
2023/12/07 02:15:12;;;;;;;9.48;6.35;;;0.20;99.90;;;;;;4910916;29;20136;-67
2023/12/07 02:18:02;;;;;;;11.48;7.00;;;0.20;99.90;;;;;;4909364;29;20540;-67
2023/12/07 02:20:47;;;;;;;9.52;6.68;;;0.20;99.90;;;;;;4909040;29;20132;-67
2023/12/07 02:23:21;;;;;;;9.73;6.70;;;0.20;99.90;;;;;;4912647;29;20062;-67
2023/12/07 02:25:54;;;;;;;10.95;7.60;;;0.20;99.90;;;;;;4909714;29;20041;-67
2023/12/07 02:28:26;;;;;;;13.13;7.75;;;0.20;99.90;;;;;;4911935;29;20100;-67
2023/12/07 02:30:58;;;;;;;11.48;7.10;;;0.20;99.90;;;;;;4915063;29;20040;-67
2023/12/07 02:33:30;;;;;;;10.40;6.57;;;0.10;99.90;;;;;;4914215;29;20047;-67
2023/12/07 02:36:02;;;;;;;7.15;5.47;;;0.10;99.90;;;;;;4911372;29;20139;-67
2023/12/07 02:38:30;;;;;;;7.28;5.28;;;0.10;99.90;;;;;;4912866;29;20048;-67
2023/12/07 02:41:02;;;;;;;10.07;6.80;;;0.10;99.90;;;;;;4908765;29;20059;-67
2023/12/07 02:43:34;;;;;;;10.63;6.88;;;0.10;99.90;;;;;;4911098;29;20050;-67
2023/12/07 02:46:01;;;;;;;12.93;7.85;;;0.10;99.90;;;;;;4908301;29;20048;-67
2023/12/07 02:48:33;;;;;;;12.65;7.85;;;0.00;99.90;;;;;;4912299;29;20048;-67
2023/12/07 02:51:05;;;;;;;13.73;8.63;;;0.00;99.90;;;;;;4910798;29;20127;-67
2023/12/07 02:53:37;;;;;;;11.05;7.30;;;0.00;99.90;;;;;;4910251;29;20572;-67
2023/12/07 02:56:09;;;;;;;11.73;7.18;;;0.00;99.90;;;;;;4910885;29;20413;-67
2023/12/07 02:58:41;;;;;;;15.13;7.88;;;0.00;99.90;;;;;;4909474;29;20060;-67
2023/12/07 03:01:13;;;;;;;14.02;8.23;;;0.00;99.90;;;;;;4912954;29;20457;-67
2023/12/07 03:03:45;;;;;;;12.20;7.07;;;0.00;99.90;;;;;;4909876;29;20048;-67
2023/12/07 03:06:19;;;;;;;13.85;7.72;;;0.00;99.90;;;;;;4909766;29;20044;-67
2023/12/07 03:08:51;;;;;;;13.60;8.48;;;0.00;99.90;;;;;;4908256;29;20046;-67
2023/12/07 03:11:24;;;;;;;11.52;8.30;;;-0.10;99.90;;;;;;4909850;29;20517;-67
2023/12/07 03:13:56;;;;;;;18.63;9.37;;;-0.10;99.90;;;;;;4910615;29;20040;-67
2023/12/07 03:16:28;;;;;;;14.60;8.68;;;-0.10;99.90;;;;;;4910961;29;20785;-67
2023/12/07 03:19:01;;;;;;;13.73;8.10;;;-0.10;99.90;;;;;;4912506;29;20051;-67
2023/12/07 03:21:33;;;;;;;14.90;8.38;;;-0.10;99.90;;;;;;4910056;29;20052;-67
2023/12/07 03:24:07;;;;;;;13.90;9.07;;;-0.10;99.90;;;;;;4913954;29;20055;-67
2023/12/07 03:26:39;;;;;;;17.02;9.45;;;-0.10;99.90;;;;;;4911755;29;20409;-67
2023/12/07 03:29:11;;;;;;;17.92;9.05;;;-0.10;99.90;;;;;;4910460;29;20513;-67
2023/12/07 03:31:37;;;;;;;16.15;9.30;;;-0.10;99.90;;;;;;4911787;29;20135;-67
2023/12/07 03:34:09;;;;;;;16.05;9.88;;;-0.20;99.90;;;;;;4912294;29;20050;-67
2023/12/07 03:36:50;;;;;;;17.70;10.00;;;-0.20;99.90;;;;;;4910400;29;20044;-67
2023/12/07 03:39:22;;;;;;;17.02;10.18;;;-0.20;99.90;;;;;;4909496;29;20047;-67
2023/12/07 03:41:54;;;;;;;16.13;9.27;;;-0.20;99.90;;;;;;4910151;29;20143;-67
2023/12/07 03:44:26;;;;;;;15.93;9.35;;;-0.20;99.90;;;;;;4897216;29;20055;-67
2023/12/07 03:46:58;;;;;;;14.40;9.45;;;-0.30;99.90;;;;;;4908782;29;20119;-67
2023/12/07 03:49:30;;;;;;;13.90;9.30;;;-0.30;99.90;;;;;;4912934;29;20119;-67
2023/12/07 03:52:02;;;;;;;14.98;9.43;;;-0.30;99.90;;;;;;4912330;29;20044;-67
2023/12/07 03:54:34;;;;;;;15.70;8.93;;;-0.40;99.90;;;;;;4912687;29;20044;-67
2023/12/07 03:57:06;;;;;;;15.30;9.23;;;-0.40;99.90;;;;;;4908565;29;20056;-67
2023/12/07 03:59:38;;;;;;;17.98;9.65;;;-0.50;99.90;;;;;;4907989;29;20052;-67
2023/12/07 04:02:10;;;;;;;13.43;7.88;;;-0.50;99.90;;;;;;4908727;29;20063;-67
2023/12/07 04:04:42;;;;;;;14.27;9.13;;;-0.50;99.90;;;;;;4893633;29;20601;-67
2023/12/07 04:07:14;;;;;;;15.85;8.82;;;-0.60;99.90;;;;;;4910381;29;20416;-67
2023/12/07 04:09:41;;;;;;;15.68;9.20;;;-0.60;99.90;;;;;;4911340;29;20045;-67
2023/12/07 04:12:13;;;;;;;16.35;10.15;;;-0.60;99.90;;;;;;4915225;29;20054;-67
2023/12/07 04:14:44;;;;;;;14.75;10.05;;;-0.60;99.90;;;;;;4929210;29;20147;-67
2023/12/07 04:17:11;;;;;;;13.85;9.02;;;-0.60;99.90;;;;;;4917336;29;20508;-67
2023/12/07 04:19:38;;;;;;;16.60;9.50;;;-0.70;99.90;;;;;;4924434;29;20058;-67
2023/12/07 04:22:10;;;;;;;13.25;9.38;;;-0.70;99.90;;;;;;4911312;29;20479;-67
2023/12/07 04:24:42;;;;;;;16.10;10.13;;;-0.70;99.90;;;;;;4913542;29;20110;-67
2023/12/07 04:27:14;;;;;;;16.85;10.25;;;-0.60;99.90;;;;;;4913974;29;20070;-67
2023/12/07 04:29:46;;;;;;;15.15;9.45;;;-0.70;99.90;;;;;;4914109;29;20040;-67
2023/12/07 04:32:18;;;;;;;15.48;10.30;;;-0.60;99.90;;;;;;4911396;29;20048;-67
2023/12/07 04:34:50;;;;;;;18.65;10.13;;;-0.70;99.90;;;;;;4914132;29;20063;-67
2023/12/07 04:37:17;;;;;;;16.80;10.35;;;-0.70;99.90;;;;;;4915637;29;20055;-67
2023/12/07 04:39:48;;;;;;;17.35;10.30;;;-0.80;99.90;;;;;;4923965;29;20072;-67
2023/12/07 04:42:20;;;;;;;18.85;10.95;;;-0.80;99.90;;;;;;4916910;29;20134;-67
2023/12/07 04:44:52;;;;;;;19.20;10.85;;;-0.80;99.90;;;;;;4897778;29;20045;-67
2023/12/07 04:47:24;;;;;;;19.48;10.85;;;-0.80;99.90;;;;;;4912458;29;20056;-67
2023/12/07 04:49:55;;;;;;;18.85;11.23;;;-0.80;99.90;;;;;;4914417;29;20116;-67
2023/12/07 04:52:22;;;;;;;18.85;10.88;;;-0.80;99.90;;;;;;4913626;29;20046;-67
2023/12/07 04:54:49;;;;;;;17.48;11.40;;;-0.80;99.90;;;;;;4915184;29;20040;-67
2023/12/07 04:57:16;;;;;;;18.88;11.15;;;-0.80;99.90;;;;;;4914137;29;20530;-67
2023/12/07 04:59:48;;;;;;;19.02;11.77;;;-0.80;99.90;;;;;;4914241;29;20047;-68
2023/12/07 05:02:20;;;;;;;18.98;12.40;;;-0.80;99.90;;;;;;4911760;29;20411;-67
2023/12/07 05:04:52;;;;;;;52.63;24.60;;;-0.80;99.90;;;;;;4898174;29;20058;-67
2023/12/07 05:07:24;;;;;;;29.77;15.23;;;-0.80;99.90;;;;;;4916484;29;20122;-70
2023/12/07 05:09:51;;;;;;;29.33;14.57;;;-0.80;99.90;;;;;;4914562;29;20047;-67
2023/12/07 05:12:23;;;;;;;22.15;12.68;;;-0.80;99.90;;;;;;4914209;29;20048;-67
2023/12/07 05:14:50;;;;;;;18.83;11.55;;;-0.80;99.90;;;;;;4914396;29;20048;-67
2023/12/07 05:17:17;;;;;;;20.10;12.38;;;-0.80;99.90;;;;;;4921833;29;20147;-68
2023/12/07 05:19:48;;;;;;;19.33;11.40;;;-0.80;99.90;;;;;;4911990;29;20053;-67
2023/12/07 05:22:21;;;;;;;20.88;12.25;;;-0.80;99.90;;;;;;4914158;29;20502;-67
2023/12/07 05:24:53;;;;;;;18.70;11.30;;;-0.80;99.90;;;;;;4914415;29;20119;-67
2023/12/07 05:27:20;;;;;;;22.63;12.52;;;-0.80;99.90;;;;;;4895560;29;20505;-67
2023/12/07 05:29:52;;;;;;;21.70;11.88;;;-0.80;99.90;;;;;;4914452;29;20130;-67
2023/12/07 05:32:24;;;;;;;18.60;11.05;;;-0.90;99.90;;;;;;4913710;29;20043;-67
2023/12/07 05:34:51;;;;;;;22.40;12.15;;;-0.90;99.90;;;;;;4930090;29;20124;-67
2023/12/07 05:37:22;;;;;;;21.83;11.82;;;-0.90;99.90;;;;;;4915099;29;20059;-67
2023/12/07 05:39:49;;;;;;;21.73;12.75;;;-0.90;99.90;;;;;;4914489;29;20083;-67
2023/12/07 05:42:18;;;;;;;21.65;13.30;;;-0.90;99.90;;;;;;4914234;29;20398;-67
2023/12/07 05:44:50;;;;;;;21.00;12.20;;;-0.90;99.90;;;;;;4913053;29;20192;-68
2023/12/07 05:47:17;;;;;;;18.50;12.02;;;-0.90;99.90;;;;;;4910715;29;20040;-67
2023/12/07 05:49:49;;;;;;;19.02;11.15;;;-0.90;99.90;;;;;;4907470;29;20045;-67
2023/12/07 05:52:21;;;;;;;17.25;11.10;;;-0.90;99.90;;;;;;4908407;29;20036;-67
2023/12/07 05:54:53;;;;;;;21.92;10.10;;;-1.00;99.90;;;;;;4925439;29;20685;-67
2023/12/07 05:57:25;;;;;;;15.70;10.43;;;-1.10;99.90;;;;;;4895791;29;20417;-67
2023/12/07 05:59:52;;;;;;;19.65;10.13;;;-1.20;99.90;;;;;;4912310;29;20036;-67
2023/12/07 06:02:25;;;;;;;16.35;10.75;;;-1.30;99.90;;;;;;4911267;29;20128;-67
2023/12/07 06:04:57;;;;;;;17.02;10.55;;;-1.40;99.90;;;;;;4898303;29;20048;-67
2023/12/07 06:07:29;;;;;;;20.08;11.35;;;-1.50;99.90;;;;;;4910559;29;20145;-67
2023/12/07 06:10:01;;;;;;;17.17;10.20;;;-1.60;99.90;;;;;;4910148;29;20044;-67
2023/12/07 06:12:33;;;;;;;15.45;10.02;;;-1.70;99.90;;;;;;4911693;29;20040;-67
2023/12/07 06:15:06;;;;;;;16.17;9.80;;;-1.70;99.90;;;;;;4910045;29;20048;-67
2023/12/07 06:17:34;;;;;;;16.10;9.77;;;-1.70;99.90;;;;;;4912467;29;20106;-67
2023/12/07 06:20:03;;;;;;;17.73;10.23;;;-1.70;99.90;;;;;;4911652;29;20056;-67
2023/12/07 06:22:34;;;;;;;;;;;-1.70;99.90;;;;;;4911662;29;20645;-67
2023/12/07 06:25:08;;;;;;;18.38;11.00;;;-1.60;99.90;;;;;;4938174;28;20013;-67
2023/12/07 06:27:40;;;;;;;17.63;9.82;;;-1.70;99.90;;;;;;4913716;29;20044;-67
2023/12/07 06:30:07;;;;;;;18.30;11.40;;;-1.80;99.90;;;;;;4911551;29;20036;-67
2023/12/07 06:32:39;;;;;;;18.98;11.40;;;-2.00;99.90;;;;;;4910564;29;20040;-67
2023/12/07 06:35:14;;;;;;;17.00;10.70;;;-2.00;99.90;;;;;;4897475;29;20405;-67
2023/12/07 06:37:41;;;;;;;19.00;11.30;;;-2.00;99.90;;;;;;4912521;29;20064;-67
2023/12/07 06:40:13;;;;;;;18.52;11.98;;;-2.00;99.90;;;;;;4904086;29;20417;-67
2023/12/07 06:42:45;;;;;;;19.30;11.88;;;-2.00;99.90;;;;;;4911796;29;20040;-67
2023/12/07 06:45:17;;;;;;;20.05;12.00;;;-2.00;99.90;;;;;;4907782;29;20052;-67
2023/12/07 06:47:49;;;;;;;17.60;11.05;;;-2.00;99.90;;;;;;4912315;29;20416;-67
2023/12/07 06:50:21;;;;;;;19.60;12.00;;;-2.00;99.90;;;;;;4910145;29;20040;-67
2023/12/07 06:52:53;;;;;;;17.70;10.90;;;-2.00;99.90;;;;;;4910917;29;20051;-67
2023/12/07 06:55:24;;;;;;;15.60;10.07;;;-2.10;99.90;;;;;;4913860;29;20461;-67
2023/12/07 06:57:51;;;;;;;17.10;9.73;;;-1.90;99.90;;;;;;4908974;29;20044;-67
2023/12/07 07:00:24;;;;;;;15.77;9.40;;;-1.80;99.90;;;;;;4924501;29;20526;-67
2023/12/07 07:02:57;;;;;;;16.83;9.87;;;-1.90;99.90;;;;;;4909141;29;20044;-67
2023/12/07 07:05:24;;;;;;;17.58;10.45;;;-2.00;99.90;;;;;;4906964;29;20375;-72
2023/12/07 07:07:51;;;;;;;14.88;9.18;;;-2.20;99.90;;;;;;4921507;29;20044;-67
2023/12/07 07:10:18;;;;;;;17.67;9.85;;;-2.30;99.90;;;;;;4908992;29;20039;-67
2023/12/07 07:12:50;;;;;;;15.40;10.18;;;-2.40;99.90;;;;;;4895562;29;20048;-67
2023/12/07 07:15:17;;;;;;;16.08;10.00;;;-2.30;99.90;;;;;;4911856;29;20032;-67
2023/12/07 07:17:48;;;;;;;15.52;9.40;;;-2.30;99.90;;;;;;4917097;29;20048;-67
2023/12/07 07:20:20;;;;;;;15.55;9.23;;;-2.30;99.90;;;;;;4908768;29;20413;-67
2023/12/07 07:22:52;;;;;;;17.38;9.90;;;-2.40;99.90;;;;;;4899155;29;20057;-67
2023/12/07 07:25:24;;;;;;;18.40;10.35;;;-2.40;99.90;;;;;;4911706;29;20127;-67
2023/12/07 07:27:56;;;;;;;16.05;9.80;;;-2.30;99.90;;;;;;4908292;29;20040;-67
2023/12/07 07:30:23;;;;;;;17.30;9.63;;;-2.30;99.90;;;;;;4903425;29;20482;-67
2023/12/07 07:32:55;;;;;;;15.82;8.90;;;-2.30;99.90;;;;;;4913684;29;20047;-67
2023/12/07 07:35:27;;;;;;;16.63;9.82;;;-2.40;99.90;;;;;;4913376;29;20389;-67
2023/12/07 07:37:59;;;;;;;16.15;10.05;;;-2.40;99.90;;;;;;4910641;29;20074;-67
2023/12/07 07:40:30;;;;;;;19.65;10.80;;;-2.30;99.90;;;;;;4910898;29;20050;-67
2023/12/07 07:43:02;;;;;;;15.65;9.82;;;-2.30;99.90;;;;;;4910831;29;20048;-67
2023/12/07 07:45:35;;;;;;;16.80;10.57;;;-2.20;99.90;;;;;;4921776;29;20040;-67
2023/12/07 07:48:07;;;;;;;22.27;12.80;;;-2.20;99.90;;;;;;4926378;29;20127;-67
2023/12/07 07:50:38;;;;;;;25.70;12.82;;;-2.20;99.90;;;;;;4910311;29;20672;-67
2023/12/07 07:53:10;;;;;;;26.85;13.50;;;-2.20;99.90;;;;;;4913680;29;20050;-67
2023/12/07 07:55:42;;;;;;;25.02;14.30;;;-2.20;99.90;;;;;;4911050;29;20048;-67
2023/12/07 07:58:09;;;;;;;26.85;14.48;;;-2.20;99.90;;;;;;4906156;29;20050;-67
2023/12/07 08:00:41;;;;;;;25.33;14.35;;;-2.20;99.90;;;;;;4910014;29;20072;-67
2023/12/07 08:03:13;;;;;;;21.95;12.18;;;-2.20;99.90;;;;;;4916029;29;20057;-67
2023/12/07 08:05:45;;;;;;;18.17;9.95;;;-2.20;99.90;;;;;;4908063;29;20052;-67
2023/12/07 08:08:17;;;;;;;17.05;10.60;;;-2.20;99.90;;;;;;4912019;29;20048;-67
2023/12/07 08:10:49;;;;;;;16.90;10.02;;;-2.20;99.90;;;;;;4898732;29;20048;-67
2023/12/07 08:13:21;;;;;;;18.20;9.82;;;-2.20;99.90;;;;;;4911897;29;20051;-67
2023/12/07 08:15:53;;;;;;;18.30;10.57;;;-2.20;99.90;;;;;;4911890;29;20040;-67
2023/12/07 08:18:25;;;;;;;19.75;11.70;;;-2.10;99.90;;;;;;4915201;29;20054;-67
2023/12/07 08:20:57;;;;;;;22.52;13.32;;;-2.10;99.90;;;;;;4910984;29;20051;-67
2023/12/07 08:23:30;;;;;;;35.97;19.25;;;-2.10;99.90;;;;;;4913194;29;20159;-67
2023/12/07 08:25:57;;;;;;;39.83;21.52;;;-2.10;99.90;;;;;;4909828;29;20055;-67
2023/12/07 08:28:29;;;;;;;41.25;20.75;;;-2.10;99.90;;;;;;4914619;29;20051;-67
2023/12/07 08:31:01;;;;;;;28.58;15.77;;;-2.10;99.90;;;;;;4919329;29;20052;-67
2023/12/07 08:33:37;;;;;;;19.80;11.70;;;-2.10;99.90;;;;;;4909516;29;20131;-67
2023/12/07 08:36:10;;;;;;;26.88;13.95;;;-2.10;99.90;;;;;;4914335;29;20052;-67
2023/12/07 08:38:42;;;;;;;26.42;14.98;;;-2.20;99.90;;;;;;4911077;29;20044;-67
2023/12/07 08:41:14;;;;;;;27.45;16.15;;;-2.30;99.90;;;;;;4920830;29;20513;-68
2023/12/07 08:43:46;;;;;;;27.45;14.40;;;-2.20;99.90;;;;;;4910308;29;20089;-67
2023/12/07 08:46:18;;;;;;;24.35;14.05;;;-2.20;99.90;;;;;;4903859;29;20060;-68
2023/12/07 08:48:50;;;;;;;24.05;12.70;;;-2.20;99.90;;;;;;4912911;29;20152;-67
2023/12/07 08:51:23;;;;;;;27.33;13.45;;;-2.20;99.90;;;;;;4912810;29;20040;-67
2023/12/07 08:53:51;;;;;;;28.45;16.27;;;-2.30;99.90;;;;;;4907458;29;20036;-67
2023/12/07 08:56:23;;;;;;;27.30;15.17;;;-2.40;99.90;;;;;;4907698;29;20036;-67
2023/12/07 08:58:55;;;;;;;30.83;16.98;;;-2.40;99.90;;;;;;4925078;29;20048;-67
2023/12/07 09:01:27;;;;;;;30.35;15.73;;;-2.40;99.90;;;;;;4913924;29;20050;-67
2023/12/07 09:04:00;;;;;;;37.78;19.17;;;-2.50;99.90;;;;;;4910948;29;20064;-67
2023/12/07 09:06:32;;;;;;;31.85;19.02;;;-2.50;99.90;;;;;;4917740;29;20421;-69
2023/12/07 09:09:04;;;;;;;33.00;19.67;;;-2.50;99.90;;;;;;4906031;29;20047;-67
2023/12/07 09:11:31;;;;;;;33.88;18.13;;;-2.50;99.90;;;;;;4914871;29;20416;-67
2023/12/07 09:14:03;;;;;;;33.92;19.85;;;-2.50;99.90;;;;;;4908074;29;20428;-67
2023/12/07 09:16:35;;;;;;;38.05;22.35;;;-2.40;99.90;;;;;;4912950;29;20143;-67
2023/12/07 09:19:07;;;;;;;41.03;22.13;;;-2.30;99.90;;;;;;4897910;29;20138;-67
2023/12/07 09:21:42;;;;;;;40.72;21.58;;;-2.30;99.90;;;;;;4914093;29;20394;-67
2023/12/07 09:24:14;;;;;;;41.45;22.45;;;-2.30;99.90;;;;;;4912335;29;20543;-67
2023/12/07 09:26:46;;;;;;;31.80;18.40;;;-2.30;99.90;;;;;;4913088;29;20053;-67
2023/12/07 09:29:18;;;;;;;29.27;16.63;;;-2.30;99.90;;;;;;4914504;29;20099;-67
2023/12/07 09:31:50;;;;;;;26.13;14.77;;;-2.30;99.90;;;;;;4909807;29;20063;-67
2023/12/07 09:34:22;;;;;;;25.90;14.90;;;-2.20;99.90;;;;;;4929898;29;20610;-67
2023/12/07 09:36:49;;;;;;;21.40;13.95;;;-2.10;99.90;;;;;;4917696;29;20040;-67
2023/12/07 09:39:16;;;;;;;20.98;12.75;;;-2.00;99.90;;;;;;4915073;29;20048;-67
2023/12/07 09:41:48;;;;;;;20.88;12.98;;;-1.90;99.90;;;;;;4904254;29;20055;-67
2023/12/07 09:44:20;;;;;;;18.88;12.80;;;-1.90;99.90;;;;;;4917485;29;20139;-67
2023/12/07 09:46:52;;;;;;;21.88;13.75;;;-1.80;99.90;;;;;;4909052;29;20039;-67
2023/12/07 09:49:25;;;;;;;20.92;13.13;;;-1.80;99.90;;;;;;4905072;29;20040;-67
2023/12/07 09:51:59;;;;;;;21.90;13.20;;;-1.70;99.90;;;;;;4898423;29;20048;-67
2023/12/07 09:54:31;;;;;;;21.52;13.63;;;-1.70;99.90;;;;;;4912983;29;20112;-67
2023/12/07 09:56:58;;;;;;;22.48;14.13;;;-1.60;99.90;;;;;;4914595;29;20067;-67
2023/12/07 09:59:30;;;;;;;21.40;13.07;;;-1.60;99.90;;;;;;4914187;29;20131;-66
2023/12/07 10:01:56;;;;;;;22.05;12.82;;;-1.60;99.90;;;;;;4911614;29;20048;-67
2023/12/07 10:04:25;;;;;;;20.08;13.32;;;-1.50;99.90;;;;;;4908414;29;20139;-67
2023/12/07 10:06:57;;;;;;;21.88;13.68;;;-1.50;99.90;;;;;;4916137;29;20060;-67
2023/12/07 10:09:29;;;;;;;25.95;15.55;;;-1.50;99.90;;;;;;4906391;29;20052;-67
2023/12/07 10:12:04;;;;;;;25.65;14.75;;;-1.40;99.90;;;;;;4894536;29;20139;-67
2023/12/07 10:14:37;;;;;;;24.67;14.75;;;-1.40;99.90;;;;;;4914517;29;20040;-67
2023/12/07 10:17:09;;;;;;;22.27;14.27;;;-1.30;99.90;;;;;;4914589;29;20044;-67
2023/12/07 10:19:41;;;;;;;25.10;15.63;;;-1.30;99.90;;;;;;4901202;29;20057;-67
2023/12/07 10:22:15;;;;;;;26.05;14.63;;;-1.20;99.90;;;;;;4924986;29;20535;-67
2023/12/07 10:24:42;;;;;;;26.08;14.35;;;-1.20;99.90;;;;;;4914139;29;20390;-67
2023/12/07 10:27:15;;;;;;;24.77;14.98;;;-1.10;99.90;;;;;;4911957;29;20044;-67
2023/12/07 10:29:45;;;;;;;23.70;14.52;;;-1.10;99.90;;;;;;4914672;29;20044;-67
2023/12/07 10:32:12;;;;;;;21.80;13.70;;;-1.10;99.90;;;;;;4914010;29;20059;-67
2023/12/07 10:34:45;;;;;;;24.60;13.45;;;-1.00;99.90;;;;;;4910101;29;20458;-67
2023/12/07 10:37:17;;;;;;;20.08;12.88;;;-0.90;99.90;;;;;;4916072;29;20127;-67
2023/12/07 10:39:49;;;;;;;24.75;13.48;;;-0.80;99.90;;;;;;4914388;29;20042;-67
2023/12/07 10:42:24;;;;;;;22.08;12.93;;;-0.70;99.90;;;;;;4914468;29;20055;-67
2023/12/07 10:45:03;;;;;;;20.25;12.57;;;-0.60;99.90;;;;;;4914104;29;20071;-67
2023/12/07 10:47:37;;;;;;;21.30;12.82;;;-0.50;99.90;;;;;;4897701;29;20052;-67
2023/12/07 10:50:13;;;;;;;19.77;12.40;;;-0.40;99.90;;;;;;4910747;29;20075;-67
2023/12/07 10:52:55;;;;;;;20.40;12.23;;;-0.30;99.90;;;;;;4914095;29;20051;-67
2023/12/07 10:55:37;;;;;;;41.72;24.10;;;-0.20;99.90;;;;;;4912040;29;20051;-67
2023/12/07 10:58:12;;;;;;;23.63;13.30;;;-0.10;99.90;;;;;;4926924;29;20039;-67
2023/12/07 11:00:46;;;;;;;19.02;12.15;;;0.00;99.90;;;;;;4911068;29;20040;-67
2023/12/07 11:03:18;;;;;;;20.55;12.15;;;0.00;99.90;;;;;;4905731;29;20052;-67
2023/12/07 11:05:50;;;;;;;21.48;13.60;;;0.10;99.90;;;;;;4911815;29;20137;-67
2023/12/07 11:08:35;;;;;;;19.38;11.38;;;0.20;99.90;;;;;;4910726;29;20059;-68
2023/12/07 11:11:29;;;;;;;17.50;10.68;;;0.20;99.90;;;;;;4911878;29;20050;-67
2023/12/07 11:13:58;;;;;;;18.45;11.75;;;0.20;99.90;;;;;;4911140;29;20040;-67
2023/12/07 11:16:40;;;;;;;19.17;11.82;;;0.20;99.90;;;;;;4924604;29;20048;-67
2023/12/07 11:19:37;;;;;;;18.75;12.07;;;0.20;99.90;;;;;;4925716;29;20052;-67
2023/12/07 11:22:07;;;;;;;21.65;12.50;;;0.30;99.90;;;;;;4909157;29;20059;-67
2023/12/07 11:25:00;;;;;;;20.15;13.35;;;0.40;99.90;;;;;;4911846;29;20059;-67
2023/12/07 11:27:32;;;;;;;21.15;13.30;;;0.50;99.90;;;;;;4913351;29;20575;-67
2023/12/07 11:30:05;;;;;;;25.92;14.60;;;0.70;99.90;;;;;;4895956;29;20136;-67
2023/12/07 11:32:38;;;;;;;22.08;14.82;;;0.80;99.90;;;;;;4905899;29;20131;-67
2023/12/07 11:35:05;;;;;;;22.17;14.35;;;0.90;99.90;;;;;;4913306;29;20051;-67
2023/12/07 11:38:14;;;;;;;25.23;15.60;;;1.00;99.90;;;;;;4911192;29;20159;-66
2023/12/07 11:40:46;;;;;;;23.48;14.45;;;1.00;99.90;;;;;;4910938;29;20124;-67
2023/12/07 11:43:30;;;;;;;23.63;14.70;;;1.00;99.90;;;;;;4914985;29;20079;-66
2023/12/07 11:45:57;;;;;;;24.23;15.27;;;1.00;99.90;;;;;;4914178;29;20130;-66
2023/12/07 11:48:29;;;;;;;24.50;14.60;;;1.10;99.90;;;;;;4915116;29;20046;-67
2023/12/07 11:51:05;;;;;;;22.65;13.70;;;1.10;99.90;;;;;;4916332;29;20051;-67
2023/12/07 11:53:36;;;;;;;21.83;14.48;;;1.10;99.90;;;;;;4910858;29;20040;-67
2023/12/07 11:56:10;;;;;;;22.25;14.80;;;1.20;99.90;;;;;;4907729;29;20066;-67
2023/12/07 11:58:37;;;;;;;21.92;15.18;;;1.30;99.90;;;;;;4909507;29;20429;-67
2023/12/07 12:01:09;;;;;;;29.08;16.58;;;1.30;99.90;;;;;;4912623;29;20044;-67
2023/12/07 12:03:37;;;;;;;29.30;15.98;;;1.40;99.90;;;;;;4892748;29;20103;-67
2023/12/07 12:06:10;;;;;;;30.63;17.08;;;1.40;99.90;;;;;;4910989;29;20059;-67
2023/12/07 12:08:42;;;;;;;25.67;15.75;;;1.50;99.90;;;;;;4911581;29;20413;-67
2023/12/07 12:11:09;;;;;;;38.70;19.33;;;1.60;99.90;;;;;;4911187;29;20032;-67
2023/12/07 12:13:38;;;;;;;31.63;17.98;;;1.70;99.90;;;;;;4910043;29;20048;-67
2023/12/07 12:16:06;;;;;;;34.97;18.42;;;1.70;99.90;;;;;;4911401;29;20445;-67
2023/12/07 12:18:38;;;;;;;29.43;17.77;;;1.80;99.90;;;;;;4908797;29;20049;-67
2023/12/07 12:21:10;;;;;;;26.88;15.77;;;1.90;99.90;;;;;;4893382;29;20293;-67
2023/12/07 12:23:39;;;;;;;27.70;15.48;;;2.00;99.90;;;;;;4894268;29;20056;-67
2023/12/07 12:26:11;;;;;;;21.58;13.02;;;2.20;99.90;;;;;;4907362;29;20051;-67
2023/12/07 12:28:42;;;;;;;21.55;13.90;;;2.30;99.90;;;;;;4912208;29;20095;-67
2023/12/07 12:31:11;;;;;;;17.63;11.00;;;2.40;99.90;;;;;;4922356;29;20049;-67
2023/12/07 12:33:43;;;;;;;19.42;11.90;;;2.40;99.90;;;;;;4911678;29;20052;-67
2023/12/07 12:36:10;;;;;;;23.63;13.90;;;2.50;99.90;;;;;;4914042;29;20043;-67
2023/12/07 12:38:42;;;;;;;20.55;12.75;;;2.70;99.90;;;;;;4913158;29;20040;-67
2023/12/07 12:41:10;;;;;;;18.80;12.32;;;2.80;99.90;;;;;;4908635;29;20044;-67
2023/12/07 12:43:44;;;;;;;15.48;11.48;;;2.90;99.90;;;;;;4911401;29;20048;-67
2023/12/07 12:46:16;;;;;;;6.65;4.90;;;3.00;99.90;;;;;;4925874;29;20059;-67
2023/12/07 12:49:02;;;;;;;5.70;3.90;;;3.10;99.90;;;;;;4911633;29;20040;-67
2023/12/07 12:51:32;;;;;;;4.95;3.50;;;3.10;99.90;;;;;;4911063;29;20584;-67
2023/12/07 12:53:59;;;;;;;4.05;2.80;;;3.10;99.90;;;;;;4913846;29;20104;-67
2023/12/07 12:56:32;;;;;;;2.72;2.17;;;3.20;99.90;;;;;;4913518;29;20052;-67
2023/12/07 12:59:04;;;;;;;2.67;2.13;;;3.20;99.90;;;;;;4895181;29;20056;-67